Time;durP1;ratioP1;P1;durP2;ratioP2;P2;SDS_P1;SDS_P2;PMS_P1;PMS_P2;Temp;Humidity;BMP_temperature;BMP_pressure;BME280_temperature;BME280_humidity;BME280_pressure;Samples;Min_cycle;Max_cycle;Signal;HPM_P1;HPM_P2
2022/06/12 00:02:03;;;;;;;2.58;1.42;;;;;;;;;;4972674;28;20027;-78
2022/06/12 00:04:28;;;;;;;4.78;1.52;;;;;;;;;;4972467;28;20031;-78
2022/06/12 00:06:53;;;;;;;2.55;1.40;;;;;;;;;;4956428;28;20109;-78
2022/06/12 00:09:20;;;;;;;4.38;1.65;;;;;;;;;;4972788;28;20068;-78
2022/06/12 00:11:45;;;;;;;2.17;1.30;;;;;;;;;;4972585;28;20042;-78
2022/06/12 00:14:12;;;;;;;2.70;1.40;;;;;;;;;;4956811;28;20035;-78
2022/06/12 00:16:40;;;;;;;1.90;1.20;;;;;;;;;;4976400;28;20078;-78
2022/06/12 00:19:07;;;;;;;1.20;1.10;;;;;;;;;;4977965;28;20031;-78
2022/06/12 00:21:33;;;;;;;3.65;1.30;;;;;;;;;;4978051;28;20030;-78
2022/06/12 00:24:01;;;;;;;1.90;1.33;;;;;;;;;;4960210;28;20050;-77
2022/06/12 00:26:39;;;;;;;1.83;1.40;;;;;;;;;;4977197;28;20547;-78
2022/06/12 00:29:10;;;;;;;3.10;1.40;;;;;;;;;;4976627;28;20078;-77
2022/06/12 00:31:38;;;;;;;2.95;1.63;;;;;;;;;;4976762;28;20030;-77
2022/06/12 00:34:04;;;;;;;4.53;1.88;;;;;;;;;;4975908;28;20026;-78
2022/06/12 00:36:29;;;;;;;3.72;1.20;;;;;;;;;;4975947;28;20498;-77
2022/06/12 00:38:55;;;;;;;1.27;1.10;;;;;;;;;;4959422;28;20023;-77
2022/06/12 00:41:20;;;;;;;2.55;1.40;;;;;;;;;;4975765;28;20607;-78
2022/06/12 00:43:47;;;;;;;3.15;1.35;;;;;;;;;;4975868;28;20050;-78
2022/06/12 00:46:35;;;;;;;3.30;1.60;;;;;;;;;;4976724;28;20117;-78
2022/06/12 00:49:03;;;;;;;4.22;1.35;;;;;;;;;;4977058;28;20487;-79
2022/06/12 00:51:28;;;;;;;2.90;1.30;;;;;;;;;;4975397;28;20027;-78
2022/06/12 00:53:56;;;;;;;2.92;1.30;;;;;;;;;;4959187;28;20041;-78
2022/06/12 00:56:33;;;;;;;2.67;1.23;;;;;;;;;;4959374;28;20031;-77
2022/06/12 00:59:02;;;;;;;2.42;1.35;;;;;;;;;;4959038;28;20458;-78
2022/06/12 01:01:33;;;;;;;1.98;1.27;;;;;;;;;;4975645;28;20254;-78
2022/06/12 01:06:44;;;;;;;1.67;1.20;;;;;;;;;;4975264;28;20578;-78
2022/06/12 01:09:13;;;;;;;2.85;1.27;;;;;;;;;;4975346;28;20066;-77
2022/06/12 01:11:42;;;;;;;2.22;1.30;;;;;;;;;;4975112;28;20076;-78
2022/06/12 01:14:09;;;;;;;3.08;1.30;;;;;;;;;;4974923;28;20073;-77
2022/06/12 01:16:38;;;;;;;2.90;1.15;;;;;;;;;;4958973;28;20165;-77
2022/06/12 01:19:05;;;;;;;4.32;1.60;;;;;;;;;;4975218;28;20084;-77
2022/06/12 01:21:36;;;;;;;1.70;1.20;;;;;;;;;;4974819;28;20114;-77
2022/06/12 01:24:27;;;;;;;6.30;1.40;;;;;;;;;;4974797;28;20023;-77
2022/06/12 01:27:02;;;;;;;3.13;1.55;;;;;;;;;;4974407;28;20031;-78
2022/06/12 01:29:33;;;;;;;1.73;1.10;;;;;;;;;;4976707;28;20023;-77
2022/06/12 01:32:03;;;;;;;1.20;1.10;;;;;;;;;;4975564;28;20145;-77
2022/06/12 01:34:37;;;;;;;1.98;1.10;;;;;;;;;;4974983;28;20027;-77
2022/06/12 01:37:21;;;;;;;1.63;1.27;;;;;;;;;;4958764;28;20058;-79
2022/06/12 01:40:15;;;;;;;2.83;1.40;;;;;;;;;;4975754;28;20054;-78
2022/06/12 01:42:50;;;;;;;1.95;1.10;;;;;;;;;;4954006;28;20499;-78
2022/06/12 01:45:44;;;;;;;2.05;1.00;;;;;;;;;;4974296;28;20074;-78
2022/06/12 01:48:31;;;;;;;1.42;1.23;;;;;;;;;;4975403;28;20490;-78
2022/06/12 01:51:02;;;;;;;4.88;1.33;;;;;;;;;;4975439;28;20030;-78
2022/06/12 01:53:40;;;;;;;2.28;1.35;;;;;;;;;;4975685;28;20033;-78
2022/06/12 01:56:30;;;;;;;3.42;1.50;;;;;;;;;;4975507;28;20023;-78
2022/06/12 01:59:24;;;;;;;1.80;1.27;;;;;;;;;;4974015;28;20027;-78
2022/06/12 02:02:25;;;;;;;3.35;1.40;;;;;;;;;;4975305;28;20023;-78
2022/06/12 02:05:08;;;;;;;4.47;1.10;;;;;;;;;;4975110;28;20031;-78
2022/06/12 02:07:43;;;;;;;5.13;1.38;;;;;;;;;;4974775;28;20384;-79
2022/06/12 02:10:23;;;;;;;2.92;1.60;;;;;;;;;;4974515;28;20081;-79
2022/06/12 02:13:17;;;;;;;2.00;1.15;;;;;;;;;;4973934;28;20042;-78
2022/06/12 02:15:45;;;;;;;1.73;1.20;;;;;;;;;;4970949;28;20101;-79
2022/06/12 02:18:37;;;;;;;5.05;1.52;;;;;;;;;;4973683;28;20510;-79
2022/06/12 02:21:15;;;;;;;3.75;1.33;;;;;;;;;;4974012;28;20368;-79
2022/06/12 02:23:50;;;;;;;2.85;1.13;;;;;;;;;;4973724;28;20058;-79
2022/06/12 02:26:19;;;;;;;2.08;1.15;;;;;;;;;;4973568;28;20027;-78
2022/06/12 02:28:49;;;;;;;2.45;1.20;;;;;;;;;;4973901;28;20031;-78
2022/06/12 02:31:22;;;;;;;2.33;1.20;;;;;;;;;;4957747;28;20031;-78
2022/06/12 02:33:56;;;;;;;2.60;1.30;;;;;;;;;;4973517;28;20538;-78
2022/06/12 02:36:27;;;;;;;4.70;1.35;;;;;;;;;;4973431;28;20026;-79
2022/06/12 02:39:15;;;;;;;2.75;1.30;;;;;;;;;;4973147;28;20034;-78
2022/06/12 02:41:44;;;;;;;2.42;1.30;;;;;;;;;;4973518;28;20475;-78
2022/06/12 02:44:26;;;;;;;2.95;1.33;;;;;;;;;;4973150;28;20047;-78
2022/06/12 02:47:06;;;;;;;2.38;1.00;;;;;;;;;;4957177;28;20046;-78
2022/06/12 02:49:33;;;;;;;2.80;1.40;;;;;;;;;;4973494;28;20447;-79
2022/06/12 02:52:04;;;;;;;2.85;1.20;;;;;;;;;;4957289;28;20390;-79
2022/06/12 02:54:47;;;;;;;2.70;1.45;;;;;;;;;;4973487;28;20472;-79
2022/06/12 02:57:34;;;;;;;3.83;1.70;;;;;;;;;;4973099;28;20058;-80
2022/06/12 02:59:59;;;;;;;4.15;1.33;;;;;;;;;;4956977;28;20030;-78
2022/06/12 03:03:06;;;;;;;4.50;1.40;;;;;;;;;;4974356;28;20031;-79
2022/06/12 03:05:35;;;;;;;2.08;1.10;;;;;;;;;;4973787;28;20077;-79
2022/06/12 03:08:15;;;;;;;3.08;1.42;;;;;;;;;;4973144;28;20103;-78
2022/06/12 03:10:54;;;;;;;3.97;1.00;;;;;;;;;;4973126;28;20031;-78
2022/06/12 03:13:21;;;;;;;2.25;1.20;;;;;;;;;;4972797;28;20126;-78
2022/06/12 03:15:53;;;;;;;1.65;1.08;;;;;;;;;;4973299;28;20022;-79
2022/06/12 03:18:29;;;;;;;4.55;1.42;;;;;;;;;;4972782;28;20026;-79
2022/06/12 03:21:27;;;;;;;2.83;1.30;;;;;;;;;;4956801;28;20089;-78
2022/06/12 03:24:20;;;;;;;2.28;1.20;;;;;;;;;;4941697;28;20042;-78
2022/06/12 03:27:04;;;;;;;2.85;1.15;;;;;;;;;;4974297;28;20098;-78
2022/06/12 03:30:02;;;;;;;3.67;1.40;;;;;;;;;;4956943;28;20603;-78
2022/06/12 03:32:33;;;;;;;5.07;1.70;;;;;;;;;;4941928;28;20169;-78
2022/06/12 03:35:32;;;;;;;5.32;1.40;;;;;;;;;;4974295;28;20031;-78
2022/06/12 03:38:12;;;;;;;3.05;1.30;;;;;;;;;;4968927;28;20042;-78
2022/06/12 03:40:50;;;;;;;3.10;1.45;;;;;;;;;;4974085;28;20039;-79
2022/06/12 03:43:51;;;;;;;2.25;1.10;;;;;;;;;;4974023;28;20046;-79
2022/06/12 03:46:45;;;;;;;4.57;1.23;;;;;;;;;;4968931;28;20038;-79
2022/06/12 03:49:32;;;;;;;4.17;1.50;;;;;;;;;;4924274;28;20062;-78
2022/06/12 03:52:04;;;;;;;2.15;1.10;;;;;;;;;;4976385;28;20026;-78
2022/06/12 03:54:29;;;;;;;2.75;1.33;;;;;;;;;;4977780;28;20035;-78
2022/06/12 04:00:35;;;;;;;1.52;1.10;;;;;;;;;;4950181;28;20475;-77
2022/06/12 04:03:11;;;;;;;2.80;1.20;;;;;;;;;;4960056;28;20436;-78
2022/06/12 04:05:40;;;;;;;2.72;1.30;;;;;;;;;;4976488;28;20423;-77
2022/06/12 04:08:09;;;;;;;5.10;1.35;;;;;;;;;;4976175;28;20089;-77
2022/06/12 04:10:36;;;;;;;3.47;0.90;;;;;;;;;;4959970;28;20058;-79
2022/06/12 04:13:05;;;;;;;1.95;1.10;;;;;;;;;;4976305;28;20035;-79
2022/06/12 04:15:37;;;;;;;3.95;1.38;;;;;;;;;;4976042;28;20030;-79
2022/06/12 04:18:04;;;;;;;2.90;1.38;;;;;;;;;;4959796;28;20019;-79
2022/06/12 04:20:38;;;;;;;2.35;1.25;;;;;;;;;;4959878;28;20031;-78
2022/06/12 04:23:05;;;;;;;3.40;1.30;;;;;;;;;;4977049;28;20496;-79
2022/06/12 04:25:41;;;;;;;2.38;1.30;;;;;;;;;;4975863;28;20431;-78
2022/06/12 04:28:33;;;;;;;2.85;1.40;;;;;;;;;;4977361;28;20022;-78
2022/06/12 04:31:01;;;;;;;4.38;1.52;;;;;;;;;;4975653;28;20026;-78
2022/06/12 04:33:34;;;;;;;2.72;1.40;;;;;;;;;;4959864;28;20062;-78
2022/06/12 04:36:01;;;;;;;4.07;0.90;;;;;;;;;;4976282;28;20022;-78
2022/06/12 04:38:28;;;;;;;5.72;1.13;;;;;;;;;;4959767;28;20023;-78
2022/06/12 04:40:54;;;;;;;3.45;1.38;;;;;;;;;;4976336;28;20379;-78
2022/06/12 04:43:20;;;;;;;3.47;1.30;;;;;;;;;;4959592;28;20042;-78
2022/06/12 04:45:47;;;;;;;1.70;1.10;;;;;;;;;;4960463;28;20038;-79
2022/06/12 04:48:32;;;;;;;3.65;1.20;;;;;;;;;;4977056;28;20107;-78
2022/06/12 04:50:58;;;;;;;4.28;1.30;;;;;;;;;;4975660;28;20030;-78
2022/06/12 04:53:23;;;;;;;2.83;1.17;;;;;;;;;;4976830;28;20388;-78
2022/06/12 04:55:48;;;;;;;2.55;1.20;;;;;;;;;;4975569;28;20031;-78
2022/06/12 04:58:14;;;;;;;2.75;1.40;;;;;;;;;;4975890;28;20033;-78
2022/06/12 05:00:39;;;;;;;2.50;1.13;;;;;;;;;;4959077;28;20130;-78
2022/06/12 05:03:04;;;;;;;2.63;1.27;;;;;;;;;;4977050;28;20027;-78
2022/06/12 05:05:30;;;;;;;2.45;1.00;;;;;;;;;;4960128;28;20057;-79
2022/06/12 05:07:56;;;;;;;3.47;1.30;;;;;;;;;;4960497;28;20038;-79
2022/06/12 05:10:21;;;;;;;3.38;1.02;;;;;;;;;;4976042;28;20395;-79
2022/06/12 05:12:46;;;;;;;3.15;1.35;;;;;;;;;;4959837;28;20041;-78
2022/06/12 05:15:13;;;;;;;3.35;1.20;;;;;;;;;;4959657;28;20130;-78
2022/06/12 05:17:44;;;;;;;2.47;1.30;;;;;;;;;;4977030;28;20027;-78
2022/06/12 05:20:16;;;;;;;4.35;1.40;;;;;;;;;;4975617;28;20027;-79
2022/06/12 05:22:41;;;;;;;5.90;1.50;;;;;;;;;;4975133;28;20026;-78
2022/06/12 05:25:08;;;;;;;6.20;2.38;;;;;;;;;;4959075;28;20039;-79
2022/06/12 05:27:33;;;;;;;4.63;1.58;;;;;;;;;;4975637;28;20030;-78
2022/06/12 05:29:59;;;;;;;2.53;1.23;;;;;;;;;;4977051;28;20034;-78
2022/06/12 05:32:25;;;;;;;2.67;1.30;;;;;;;;;;4977124;28;20045;-79
2022/06/12 05:34:51;;;;;;;3.10;1.70;;;;;;;;;;4975364;28;20109;-78
2022/06/12 05:37:17;;;;;;;1.67;1.02;;;;;;;;;;4975189;28;20031;-78
2022/06/12 05:39:42;;;;;;;2.55;1.52;;;;;;;;;;4959384;28;20035;-78
2022/06/12 05:42:08;;;;;;;7.13;1.33;;;;;;;;;;4959186;28;20525;-79
2022/06/12 05:44:35;;;;;;;2.58;1.45;;;;;;;;;;4959891;28;20035;-79
2022/06/12 05:47:01;;;;;;;7.00;1.65;;;;;;;;;;4976014;28;20022;-79
2022/06/12 05:49:28;;;;;;;2.50;1.40;;;;;;;;;;4975791;28;20073;-78
2022/06/12 05:51:53;;;;;;;2.10;1.23;;;;;;;;;;4958750;28;20376;-79
2022/06/12 05:54:18;;;;;;;2.70;1.10;;;;;;;;;;4975195;28;20031;-78
2022/06/12 05:56:44;;;;;;;4.57;1.40;;;;;;;;;;4976756;28;20483;-79
2022/06/12 05:59:10;;;;;;;7.85;1.63;;;;;;;;;;4958615;28;20035;-80
2022/06/12 06:01:38;;;;;;;3.50;1.30;;;;;;;;;;4958998;28;20491;-80
2022/06/12 06:04:03;;;;;;;4.75;1.58;;;;;;;;;;4975126;28;20033;-80
2022/06/12 06:06:33;;;;;;;3.13;1.45;;;;;;;;;;4958645;28;20034;-79
2022/06/12 06:08:59;;;;;;;4.90;1.83;;;;;;;;;;4975427;28;20121;-78
2022/06/12 06:11:25;;;;;;;5.95;1.77;;;;;;;;;;4974239;28;20041;-80
2022/06/12 06:13:50;;;;;;;9.07;2.53;;;;;;;;;;4973667;28;20471;-80
2022/06/12 06:16:16;;;;;;;4.47;1.70;;;;;;;;;;4958733;28;20480;-81
2022/06/12 06:18:42;;;;;;;5.65;2.05;;;;;;;;;;4975656;28;20054;-79
2022/06/12 06:21:09;;;;;;;6.75;2.75;;;;;;;;;;4975527;28;20089;-79
2022/06/12 06:23:35;;;;;;;9.90;2.97;;;;;;;;;;4975241;28;20055;-79
2022/06/12 06:26:01;;;;;;;6.72;2.60;;;;;;;;;;4976091;28;20018;-78
2022/06/12 06:28:27;;;;;;;7.47;2.70;;;;;;;;;;4977102;28;20037;-79
2022/06/12 06:30:52;;;;;;;3.60;2.20;;;;;;;;;;4959604;28;20038;-79
2022/06/12 06:33:18;;;;;;;4.13;2.45;;;;;;;;;;4975675;28;20034;-80
2022/06/12 06:35:43;;;;;;;4.65;2.35;;;;;;;;;;4976449;28;20490;-79
2022/06/12 06:38:09;;;;;;;3.70;2.17;;;;;;;;;;4975774;28;20034;-80
2022/06/12 06:40:35;;;;;;;14.65;2.55;;;;;;;;;;4974980;28;20031;-79
2022/06/12 06:43:00;;;;;;;5.38;2.58;;;;;;;;;;4975237;28;20055;-80
2022/06/12 06:48:10;;;;;;;;;;;;;;;;;;4975338;28;20029;-80
2022/06/12 06:50:36;;;;;;;6.22;2.28;;;;;;;;;;4974529;28;19910;-79
2022/06/12 06:53:02;;;;;;;4.07;2.20;;;;;;;;;;4974444;28;20119;-79
2022/06/12 06:55:29;;;;;;;6.13;2.30;;;;;;;;;;4974319;28;20101;-79
2022/06/12 06:57:54;;;;;;;8.07;3.00;;;;;;;;;;4974336;28;20035;-78
2022/06/12 07:00:24;;;;;;;7.03;2.30;;;;;;;;;;4973856;28;20042;-78
2022/06/12 07:02:50;;;;;;;6.35;2.22;;;;;;;;;;4975235;28;20158;-79
2022/06/12 07:05:16;;;;;;;3.22;1.80;;;;;;;;;;4975531;28;20026;-79
2022/06/12 07:07:42;;;;;;;9.55;3.03;;;;;;;;;;4973945;28;20114;-79
2022/06/12 07:10:11;;;;;;;5.90;2.30;;;;;;;;;;4973579;28;20081;-79
2022/06/12 07:12:37;;;;;;;8.93;2.40;;;;;;;;;;4973952;28;20494;-79
2022/06/12 07:15:03;;;;;;;3.35;1.95;;;;;;;;;;4973941;28;20110;-80
2022/06/12 07:17:28;;;;;;;4.15;1.95;;;;;;;;;;4974129;28;20037;-81
2022/06/12 07:19:53;;;;;;;4.25;2.33;;;;;;;;;;4974897;28;20031;-78
2022/06/12 07:22:19;;;;;;;5.80;2.53;;;;;;;;;;4973910;28;20031;-78
2022/06/12 07:24:44;;;;;;;9.10;1.90;;;;;;;;;;4977496;28;20372;-78
2022/06/12 07:27:10;;;;;;;5.93;2.53;;;;;;;;;;4978717;28;20062;-78
2022/06/12 07:29:35;;;;;;;6.68;2.00;;;;;;;;;;4961262;28;20035;-81
2022/06/12 07:32:01;;;;;;;6.78;1.95;;;;;;;;;;4978025;28;20387;-79
2022/06/12 07:34:26;;;;;;;7.60;2.15;;;;;;;;;;4977398;28;20031;-80
2022/06/12 07:36:53;;;;;;;5.10;1.90;;;;;;;;;;4977642;28;20034;-81
2022/06/12 07:39:24;;;;;;;9.00;1.85;;;;;;;;;;4978347;28;20109;-79
2022/06/12 07:41:51;;;;;;;5.10;2.40;;;;;;;;;;4976853;28;20027;-78
2022/06/12 07:44:20;;;;;;;4.22;1.65;;;;;;;;;;4976725;28;20027;-78
2022/06/12 07:46:46;;;;;;;5.45;1.98;;;;;;;;;;4977226;28;20050;-78
2022/06/12 07:49:11;;;;;;;4.70;1.83;;;;;;;;;;4977006;28;20031;-79
2022/06/12 07:51:37;;;;;;;4.65;1.88;;;;;;;;;;4977121;28;20038;-77
2022/06/12 07:54:02;;;;;;;8.90;1.77;;;;;;;;;;4978021;28;20035;-77
2022/06/12 07:56:27;;;;;;;8.70;2.00;;;;;;;;;;4976942;28;20416;-77
2022/06/12 07:58:53;;;;;;;11.25;2.22;;;;;;;;;;4978409;28;20023;-77
2022/06/12 08:01:21;;;;;;;22.10;3.10;;;;;;;;;;4977806;28;20062;-77
2022/06/12 08:03:47;;;;;;;6.30;1.58;;;;;;;;;;4960401;28;20506;-77
2022/06/12 08:06:12;;;;;;;6.28;2.20;;;;;;;;;;4977112;28;20030;-77
2022/06/12 08:08:38;;;;;;;14.63;3.63;;;;;;;;;;4977783;28;20046;-77
2022/06/12 08:11:03;;;;;;;10.93;2.92;;;;;;;;;;4960515;28;20089;-79
2022/06/12 08:13:30;;;;;;;9.80;2.97;;;;;;;;;;4960155;28;20041;-78
2022/06/12 08:15:56;;;;;;;27.60;3.08;;;;;;;;;;4977627;28;20034;-77
2022/06/12 08:18:22;;;;;;;7.13;2.33;;;;;;;;;;4976330;28;20027;-78
2022/06/12 08:20:55;;;;;;;6.63;2.33;;;;;;;;;;4976333;28;20035;-79
2022/06/12 08:23:30;;;;;;;6.40;2.45;;;;;;;;;;4960101;28;20110;-78
2022/06/12 08:26:00;;;;;;;9.52;2.15;;;;;;;;;;4976315;28;20050;-79
2022/06/12 08:28:27;;;;;;;7.43;2.42;;;;;;;;;;4976584;28;20109;-78
2022/06/12 08:30:53;;;;;;;6.35;1.83;;;;;;;;;;4976493;28;20455;-79
2022/06/12 08:33:19;;;;;;;6.82;2.20;;;;;;;;;;4977267;28;20126;-82
2022/06/12 08:35:44;;;;;;;9.63;2.20;;;;;;;;;;4958697;28;20026;-79
2022/06/12 08:38:11;;;;;;;5.93;2.20;;;;;;;;;;4976023;28;20031;-79
2022/06/12 08:40:51;;;;;;;7.28;2.15;;;;;;;;;;4976071;28;20039;-80
2022/06/12 08:43:54;;;;;;;5.85;2.08;;;;;;;;;;4975938;28;20097;-79
2022/06/12 08:46:30;;;;;;;7.50;2.03;;;;;;;;;;4976010;28;20026;-79
2022/06/12 08:49:04;;;;;;;4.90;1.80;;;;;;;;;;4960320;28;20023;-79
2022/06/12 08:51:44;;;;;;;5.57;1.85;;;;;;;;;;4977171;28;20039;-78
2022/06/12 08:54:14;;;;;;;4.15;1.80;;;;;;;;;;4959590;28;20121;-78
2022/06/12 08:56:50;;;;;;;6.65;2.20;;;;;;;;;;4977249;28;20027;-79
2022/06/12 08:59:25;;;;;;;3.70;1.50;;;;;;;;;;4975708;28;20043;-79
2022/06/12 09:01:50;;;;;;;5.57;1.95;;;;;;;;;;4975600;28;20102;-78
2022/06/12 09:04:18;;;;;;;4.95;2.20;;;;;;;;;;4975440;28;20444;-80
2022/06/12 09:06:58;;;;;;;3.95;1.70;;;;;;;;;;4975902;28;20387;-80
2022/06/12 09:09:28;;;;;;;7.45;2.30;;;;;;;;;;4975576;28;20019;-81
2022/06/12 09:12:02;;;;;;;9.80;2.30;;;;;;;;;;4976400;28;20050;-79
2022/06/12 09:14:39;;;;;;;7.47;2.28;;;;;;;;;;4975457;28;20055;-79
2022/06/12 09:17:07;;;;;;;4.72;1.67;;;;;;;;;;4976589;28;20031;-79
2022/06/12 09:19:53;;;;;;;9.95;2.13;;;;;;;;;;4976529;28;20048;-79
2022/06/12 09:22:27;;;;;;;4.43;1.98;;;;;;;;;;4975959;28;20387;-80
2022/06/12 09:25:19;;;;;;;3.00;1.77;;;;;;;;;;4975608;28;20454;-78
2022/06/12 09:27:51;;;;;;;4.97;1.80;;;;;;;;;;4976107;28;20050;-78
2022/06/12 09:30:28;;;;;;;11.55;1.60;;;;;;;;;;4959117;28;20074;-79
2022/06/12 09:33:03;;;;;;;6.15;1.70;;;;;;;;;;4975869;28;20026;-79
2022/06/12 09:36:15;;;;;;;4.85;1.65;;;;;;;;;;4976485;28;20037;-78
2022/06/12 09:38:46;;;;;;;4.45;1.88;;;;;;;;;;4902253;29;20028;-78
2022/06/12 09:41:26;;;;;;;5.93;1.92;;;;;;;;;;4917326;29;20059;-78
2022/06/12 09:44:23;;;;;;;4.28;1.67;;;;;;;;;;4901197;29;20556;-78
2022/06/12 09:47:07;;;;;;;4.75;1.67;;;;;;;;;;4916631;29;20040;-78
2022/06/12 09:49:41;;;;;;;5.03;1.88;;;;;;;;;;4917104;29;20048;-77
2022/06/12 09:52:21;;;;;;;3.28;1.45;;;;;;;;;;4901258;29;20516;-77
2022/06/12 09:55:14;;;;;;;4.07;1.50;;;;;;;;;;4900795;29;20048;-78
2022/06/12 09:57:44;;;;;;;3.28;1.40;;;;;;;;;;4916576;29;20114;-78
2022/06/12 10:00:23;;;;;;;5.80;1.88;;;;;;;;;;4900864;29;20532;-78
2022/06/12 10:02:57;;;;;;;3.83;1.67;;;;;;;;;;4901136;29;20504;-77
2022/06/12 10:05:29;;;;;;;4.50;1.52;;;;;;;;;;4900444;29;20504;-78
2022/06/12 10:08:00;;;;;;;4.68;1.60;;;;;;;;;;4900800;29;20024;-78
2022/06/12 10:10:31;;;;;;;4.32;1.50;;;;;;;;;;4972551;28;20038;-78
2022/06/12 10:13:03;;;;;;;3.35;1.58;;;;;;;;;;4974551;28;20365;-78
2022/06/12 10:15:45;;;;;;;2.58;1.38;;;;;;;;;;4974215;28;20038;-77
2022/06/12 10:18:38;;;;;;;5.93;1.63;;;;;;;;;;4974258;28;20077;-77
2022/06/12 10:21:11;;;;;;;3.10;1.80;;;;;;;;;;4951359;28;20408;-77
2022/06/12 10:23:36;;;;;;;4.72;1.55;;;;;;;;;;4958716;28;20467;-77
2022/06/12 10:26:17;;;;;;;4.63;1.83;;;;;;;;;;4958268;28;20089;-77
2022/06/12 10:28:44;;;;;;;5.00;1.55;;;;;;;;;;4974306;28;20127;-77
2022/06/12 10:31:19;;;;;;;5.35;1.90;;;;;;;;;;4974485;28;20023;-77
2022/06/12 10:33:56;;;;;;;3.72;1.85;;;;;;;;;;4974152;28;20027;-77
2022/06/12 10:36:39;;;;;;;3.20;1.30;;;;;;;;;;4974367;28;20030;-76
2022/06/12 10:39:16;;;;;;;;;;;;;;;;;;4958451;28;20035;-77
2022/06/12 10:41:56;;;;;;;2.90;1.50;;;;;;;;;;4973897;28;20009;-77
2022/06/12 10:44:52;;;;;;;5.85;1.50;;;;;;;;;;4973881;28;20035;-77
2022/06/12 10:47:27;;;;;;;2.83;1.45;;;;;;;;;;4967457;28;20066;-78
2022/06/12 10:50:19;;;;;;;2.33;1.33;;;;;;;;;;4973587;28;20019;-77
2022/06/12 10:53:00;;;;;;;4.75;1.40;;;;;;;;;;4974180;28;20141;-77
2022/06/12 10:55:35;;;;;;;4.50;1.45;;;;;;;;;;4957718;28;20143;-79
2022/06/12 10:58:06;;;;;;;3.58;1.30;;;;;;;;;;4956957;28;20058;-78
2022/06/12 11:00:35;;;;;;;4.85;1.60;;;;;;;;;;4975520;28;20106;-78
2022/06/12 11:03:09;;;;;;;3.22;1.40;;;;;;;;;;4957542;28;20487;-78
2022/06/12 11:05:45;;;;;;;3.53;1.40;;;;;;;;;;4973916;28;20077;-77
2022/06/12 11:08:20;;;;;;;3.08;1.40;;;;;;;;;;4974403;28;20026;-78
2022/06/12 11:11:16;;;;;;;3.63;1.35;;;;;;;;;;4973949;28;20030;-77
2022/06/12 11:14:09;;;;;;;2.88;1.48;;;;;;;;;;4973566;28;20487;-77
2022/06/12 11:16:56;;;;;;;4.28;1.65;;;;;;;;;;4975138;28;20395;-77
2022/06/12 11:19:46;;;;;;;4.35;1.80;;;;;;;;;;4974515;28;20034;-80
2022/06/12 11:22:31;;;;;;;3.38;1.80;;;;;;;;;;4973781;28;20030;-79
2022/06/12 11:25:16;;;;;;;4.50;1.88;;;;;;;;;;4957780;28;20031;-81
2022/06/12 11:27:56;;;;;;;4.57;1.95;;;;;;;;;;4974948;28;20031;-79
2022/06/12 11:30:34;;;;;;;5.07;1.88;;;;;;;;;;4974884;28;20033;-79
2022/06/12 11:33:22;;;;;;;3.85;1.80;;;;;;;;;;4973289;28;20026;-79
2022/06/12 11:36:06;;;;;;;3.83;1.88;;;;;;;;;;4945712;28;20494;-79
2022/06/12 11:38:45;;;;;;;6.30;1.88;;;;;;;;;;4973592;28;20061;-80
2022/06/12 11:41:40;;;;;;;4.07;1.63;;;;;;;;;;4973168;28;20038;-78
2022/06/12 11:44:49;;;;;;;4.40;2.00;;;;;;;;;;4974167;28;20050;-79
2022/06/12 11:47:30;;;;;;;7.63;1.40;;;;;;;;;;4974533;28;20046;-79
2022/06/12 11:49:59;;;;;;;2.97;1.38;;;;;;;;;;4973088;28;20387;-80
2022/06/12 11:52:45;;;;;;;3.67;1.20;;;;;;;;;;4973037;28;20027;-81
2022/06/12 11:55:36;;;;;;;4.07;1.92;;;;;;;;;;4974621;28;20038;-81
2022/06/12 11:58:27;;;;;;;6.18;2.25;;;;;;;;;;4972993;28;20054;-81
2022/06/12 12:01:10;;;;;;;5.68;1.88;;;;;;;;;;4973904;28;20097;-81
2022/06/12 12:04:00;;;;;;;12.63;1.73;;;;;;;;;;4973841;28;20027;-79
2022/06/12 12:06:44;;;;;;;4.32;1.70;;;;;;;;;;4973532;28;20030;-80
2022/06/12 12:09:20;;;;;;;1.77;1.13;;;;;;;;;;4974663;28;20027;-79
2022/06/12 12:11:48;;;;;;;4.90;1.90;;;;;;;;;;4978534;28;20106;-79
2022/06/12 12:14:19;;;;;;;2.28;1.30;;;;;;;;;;4977325;28;20030;-79
2022/06/12 12:16:48;;;;;;;3.65;1.60;;;;;;;;;;4997149;28;20554;-79
2022/06/12 12:19:42;;;;;;;3.80;1.50;;;;;;;;;;4982936;28;20630;-79
2022/06/12 12:22:15;;;;;;;6.07;1.80;;;;;;;;;;4999785;28;20030;-79
2022/06/12 12:24:49;;;;;;;6.78;1.83;;;;;;;;;;4999306;28;20033;-80
2022/06/12 12:27:26;;;;;;;;;;;;;;;;;;4982100;28;20497;-80
2022/06/12 12:29:53;;;;;;;7.10;1.30;;;;;;;;;;4999249;28;19910;-80
2022/06/12 12:32:20;;;;;;;4.80;1.20;;;;;;;;;;4997849;28;20025;-80
2022/06/12 12:34:49;;;;;;;3.95;1.65;;;;;;;;;;4998232;28;20030;-79
2022/06/12 12:42:43;;;;;;;;;;;;;;;;;;4995724;28;20061;-80
2022/06/12 12:45:23;;;;;;;2.95;1.23;;;;;;;;;;4995870;28;19917;-80
2022/06/12 12:48:02;;;;;;;4.65;1.02;;;;;;;;;;4995812;28;20041;-80
2022/06/12 12:50:28;;;;;;;2.72;1.10;;;;;;;;;;4996458;28;20403;-78
2022/06/12 12:52:57;;;;;;;8.07;1.20;;;;;;;;;;4995607;28;20023;-79
2022/06/12 12:55:35;;;;;;;5.82;1.23;;;;;;;;;;4979170;28;20390;-78
2022/06/12 12:58:14;;;;;;;5.28;1.20;;;;;;;;;;4995287;28;20444;-79
2022/06/12 13:00:39;;;;;;;2.35;1.10;;;;;;;;;;4979380;28;20022;-78
2022/06/12 13:03:29;;;;;;;3.65;1.30;;;;;;;;;;4965093;28;20029;-78
2022/06/12 13:06:16;;;;;;;5.07;1.50;;;;;;;;;;4981640;28;20022;-78
2022/06/12 13:09:13;;;;;;;2.03;1.10;;;;;;;;;;4981221;28;20117;-78
2022/06/12 13:11:38;;;;;;;5.78;1.38;;;;;;;;;;4995168;28;20150;-78
2022/06/12 13:14:12;;;;;;;3.10;1.33;;;;;;;;;;4994914;28;20497;-78
2022/06/12 13:16:54;;;;;;;3.97;1.40;;;;;;;;;;4978970;28;20126;-79
2022/06/12 13:19:38;;;;;;;3.55;1.40;;;;;;;;;;4978977;28;20402;-78
2022/06/12 13:22:19;;;;;;;2.15;1.10;;;;;;;;;;4995463;28;20026;-79
2022/06/12 13:25:07;;;;;;;5.10;1.42;;;;;;;;;;4996955;28;20105;-78
2022/06/12 13:27:46;;;;;;;3.00;1.58;;;;;;;;;;4980304;28;20033;-79
2022/06/12 13:30:27;;;;;;;4.40;1.60;;;;;;;;;;4999511;28;20034;-78
2022/06/12 13:32:52;;;;;;;1.80;1.10;;;;;;;;;;4996984;28;20022;-78
2022/06/12 13:35:21;;;;;;;3.13;1.17;;;;;;;;;;4996588;28;20030;-78
2022/06/12 13:37:48;;;;;;;3.97;1.25;;;;;;;;;;4994486;28;20057;-77
2022/06/12 13:40:41;;;;;;;3.28;1.35;;;;;;;;;;4994268;28;20057;-78
2022/06/12 13:43:39;;;;;;;7.20;1.52;;;;;;;;;;4975014;28;20093;-77
2022/06/12 13:46:24;;;;;;;4.70;1.40;;;;;;;;;;4977864;28;20034;-79
2022/06/12 13:48:50;;;;;;;5.07;1.27;;;;;;;;;;4994260;28;20490;-78
2022/06/12 13:51:34;;;;;;;2.80;1.27;;;;;;;;;;4977823;28;20038;-78
2022/06/12 13:54:12;;;;;;;4.60;1.40;;;;;;;;;;4995165;28;20022;-78
2022/06/12 13:57:00;;;;;;;4.15;1.30;;;;;;;;;;4995207;28;20022;-78
2022/06/12 13:59:32;;;;;;;1.70;1.00;;;;;;;;;;4977679;28;20483;-78
2022/06/12 14:02:08;;;;;;;2.50;1.25;;;;;;;;;;4994081;28;20105;-79
2022/06/12 14:04:34;;;;;;;4.38;1.40;;;;;;;;;;4994286;28;20014;-78
2022/06/12 14:07:01;;;;;;;3.17;1.30;;;;;;;;;;4994053;28;20497;-79
2022/06/12 14:09:28;;;;;;;1.15;0.88;;;;;;;;;;4977645;28;20033;-78
2022/06/12 14:11:54;;;;;;;4.47;1.40;;;;;;;;;;4995298;28;20038;-78
2022/06/12 14:14:26;;;;;;;2.15;0.98;;;;;;;;;;4977413;28;20033;-78
2022/06/12 14:16:54;;;;;;;2.05;1.10;;;;;;;;;;4994775;28;20030;-78
2022/06/12 14:19:26;;;;;;;1.90;1.02;;;;;;;;;;4977647;28;20041;-78
2022/06/12 14:22:18;;;;;;;2.15;1.10;;;;;;;;;;4993572;28;20034;-78
2022/06/12 14:25:15;;;;;;;1.33;1.00;;;;;;;;;;4993411;28;20035;-78
2022/06/12 14:27:41;;;;;;;2.95;1.10;;;;;;;;;;4994224;28;20117;-78
2022/06/12 14:30:32;;;;;;;2.15;1.00;;;;;;;;;;4961247;28;20169;-78
2022/06/12 14:32:58;;;;;;;1.85;1.13;;;;;;;;;;4993623;28;20026;-78
2022/06/12 14:35:23;;;;;;;2.83;1.13;;;;;;;;;;4961242;28;20130;-78
2022/06/12 14:37:49;;;;;;;2.47;1.23;;;;;;;;;;4994748;28;20035;-78
2022/06/12 14:40:30;;;;;;;1.27;1.05;;;;;;;;;;4977077;28;20030;-79
2022/06/12 14:43:11;;;;;;;1.77;1.00;;;;;;;;;;4994442;28;20104;-78
2022/06/12 14:45:36;;;;;;;1.35;1.00;;;;;;;;;;4993608;28;20076;-78
2022/06/12 14:48:02;;;;;;;2.95;1.20;;;;;;;;;;4993258;28;20034;-78
2022/06/12 14:50:28;;;;;;;1.77;1.10;;;;;;;;;;4993163;28;20041;-78
2022/06/12 14:52:53;;;;;;;2.25;1.30;;;;;;;;;;4993585;28;20026;-78
2022/06/12 14:55:18;;;;;;;3.03;1.02;;;;;;;;;;4996133;28;20026;-78
2022/06/12 14:57:44;;;;;;;2.35;1.20;;;;;;;;;;4993936;28;20037;-78
2022/06/12 15:00:19;;;;;;;3.78;1.27;;;;;;;;;;4994588;28;20383;-76
2022/06/12 15:02:45;;;;;;;1.70;1.02;;;;;;;;;;4994878;28;20023;-78
2022/06/12 15:05:26;;;;;;;2.33;1.08;;;;;;;;;;4976928;28;20037;-78
2022/06/12 15:07:51;;;;;;;4.22;1.30;;;;;;;;;;4993266;28;20438;-78
2022/06/12 15:10:17;;;;;;;1.40;1.10;;;;;;;;;;4993366;28;20109;-78
2022/06/12 15:12:44;;;;;;;1.35;1.08;;;;;;;;;;4976852;28;20037;-77
2022/06/12 15:15:19;;;;;;;1.20;0.90;;;;;;;;;;4961466;28;20041;-79
2022/06/12 15:17:45;;;;;;;1.05;0.80;;;;;;;;;;4992901;28;20030;-78
2022/06/12 15:20:10;;;;;;;2.47;1.02;;;;;;;;;;4993177;28;20556;-79
2022/06/12 15:22:36;;;;;;;1.90;1.30;;;;;;;;;;4992206;28;20549;-80
2022/06/12 15:25:02;;;;;;;2.35;1.40;;;;;;;;;;4992893;28;20031;-79
2022/06/12 15:30:15;;;;;;;2.38;1.20;;;;;;;;;;4993405;28;20034;-79
2022/06/12 15:32:41;;;;;;;2.22;1.08;;;;;;;;;;4993104;28;20026;-79
2022/06/12 15:35:17;;;;;;;3.38;1.10;;;;;;;;;;4976368;28;20022;-80
2022/06/12 15:37:43;;;;;;;2.53;0.80;;;;;;;;;;4976337;28;20128;-78
2022/06/12 15:40:16;;;;;;;3.08;1.20;;;;;;;;;;4996775;28;20057;-79